createdAt,value
2018-03-27T00:00:15.094Z,28.33
2018-03-27T00:02:43.444Z,31.63
2018-03-27T00:05:15.663Z,32.33
2018-03-27T00:07:43.944Z,31.43
2018-03-27T00:10:12.274Z,33.77
2018-03-27T00:12:40.614Z,32.47
2018-03-27T00:15:08.942Z,32.67
2018-03-27T00:17:37.331Z,32.47
2018-03-27T00:20:05.989Z,33.20
2018-03-27T00:22:34.311Z,31.73
2018-03-27T00:25:02.727Z,31.40
2018-03-27T00:27:42.917Z,35.13
2018-03-27T00:30:23.169Z,33.13
2018-03-27T00:33:03.485Z,31.60
2018-03-27T00:35:43.605Z,31.70
2018-03-27T00:38:23.864Z,33.43
2018-03-27T00:40:51.682Z,31.47
2018-03-27T00:43:20.061Z,28.17
2018-03-27T00:45:48.442Z,30.57
2018-03-27T00:48:16.872Z,29.37
2018-03-27T00:50:45.204Z,26.60
2018-03-27T00:53:13.550Z,27.43
2018-03-27T00:55:41.888Z,26.53
2018-03-27T00:58:10.302Z,26.50
2018-03-27T01:00:41.146Z,25.50
2018-03-27T01:03:09.533Z,26.10
2018-03-27T01:05:37.936Z,25.10
2018-03-27T01:08:06.288Z,26.20
2018-03-27T01:10:34.626Z,22.97
2018-03-27T01:13:02.990Z,24.90
2018-03-27T01:15:31.388Z,23.73
2018-03-27T01:17:59.737Z,24.23
2018-03-27T01:20:28.995Z,24.10
2018-03-27T01:22:57.397Z,24.90
2018-03-27T01:25:25.782Z,25.90
2018-03-27T01:27:54.254Z,24.60
2018-03-27T01:30:22.586Z,26.07
2018-03-27T01:32:50.926Z,25.47
2018-03-27T01:35:19.253Z,26.90
2018-03-27T01:37:47.648Z,25.90
2018-03-27T01:40:16.062Z,22.67
2018-03-27T01:42:44.404Z,24.77
2018-03-27T01:45:12.748Z,26.87
2018-03-27T01:47:41.102Z,28.03
2018-03-27T01:50:09.509Z,25.83
2018-03-27T01:52:37.900Z,26.50
2018-03-27T01:55:06.301Z,27.67
2018-03-27T01:57:34.703Z,26.63
2018-03-27T02:00:03.068Z,28.93
2018-03-27T02:02:31.393Z,28.77
2018-03-27T02:04:59.744Z,29.50
2018-03-27T02:07:28.166Z,28.23
2018-03-27T02:09:56.557Z,28.83
2018-03-27T02:12:30.580Z,27.13
2018-03-27T02:15:04.524Z,26.17
2018-03-27T02:17:38.522Z,26.07
2018-03-27T02:20:12.545Z,26.53
2018-03-27T02:22:41.191Z,26.10
2018-03-27T02:25:09.640Z,28.33
2018-03-27T02:27:37.984Z,23.27
2018-03-27T02:30:06.368Z,25.00
2018-03-27T02:32:34.712Z,24.50
2018-03-27T02:35:03.057Z,26.80
2018-03-27T02:37:31.381Z,25.37
2018-03-27T02:39:59.785Z,22.83
2018-03-27T02:42:28.178Z,24.47
2018-03-27T02:44:56.519Z,22.73
2018-03-27T02:47:24.839Z,23.83
2018-03-27T02:49:53.354Z,24.90
2018-03-27T02:52:21.745Z,24.47
2018-03-27T02:54:50.139Z,24.73
2018-03-27T02:57:18.495Z,22.83
2018-03-27T02:59:46.820Z,20.63
2018-03-27T03:02:15.205Z,21.07
2018-03-27T03:04:43.536Z,21.97
2018-03-27T03:07:11.888Z,23.53
2018-03-27T03:09:40.301Z,23.60
2018-03-27T03:12:08.659Z,23.27
2018-03-27T03:14:36.996Z,21.30
2018-03-27T03:17:05.485Z,21.47
2018-03-27T03:19:33.819Z,18.80
2018-03-27T03:22:02.170Z,22.67
2018-03-27T03:24:30.498Z,23.00
2018-03-27T03:26:58.843Z,22.33
2018-03-27T03:29:27.211Z,20.23
2018-03-27T03:31:55.549Z,22.03
2018-03-27T03:34:23.887Z,20.07
2018-03-27T03:36:52.305Z,19.73
2018-03-27T03:39:20.624Z,18.67
2018-03-27T03:41:48.963Z,20.83
2018-03-27T03:44:17.297Z,18.53
2018-03-27T03:46:45.780Z,17.33
2018-03-27T03:49:14.087Z,18.03
2018-03-27T03:51:42.460Z,17.00
2018-03-27T03:54:10.846Z,18.40
2018-03-27T03:56:39.156Z,17.57
2018-03-27T03:59:08.596Z,18.97
2018-03-27T04:01:36.950Z,19.40
2018-03-27T04:04:05.289Z,19.23
2018-03-27T04:06:33.627Z,19.37
2018-03-27T04:09:01.976Z,18.43
2018-03-27T04:11:30.340Z,21.63
2018-03-27T04:13:58.917Z,19.73
2018-03-27T04:16:27.258Z,16.23
2018-03-27T04:18:55.641Z,17.07
2018-03-27T04:21:24.036Z,16.43
2018-03-27T04:23:53.076Z,16.33
2018-03-27T04:26:21.386Z,15.93
2018-03-27T04:28:49.728Z,17.77
2018-03-27T04:31:18.058Z,16.57
2018-03-27T04:33:46.453Z,15.67
2018-03-27T04:36:14.852Z,14.40
2018-03-27T04:38:43.196Z,14.80
2018-03-27T04:41:11.519Z,14.40
2018-03-27T04:43:39.897Z,15.93
2018-03-27T04:46:08.332Z,15.73
2018-03-27T04:48:36.821Z,16.53
2018-03-27T04:51:05.221Z,18.23
2018-03-27T04:53:33.611Z,15.37
2018-03-27T04:56:01.949Z,14.83
2018-03-27T04:58:30.428Z,15.67
2018-03-27T05:00:58.905Z,16.77
2018-03-27T05:03:27.235Z,18.53
2018-03-27T05:05:55.625Z,15.50
2018-03-27T05:08:24.227Z,15.47
2018-03-27T05:10:52.681Z,13.60
2018-03-27T05:13:21.091Z,13.63
2018-03-27T05:15:49.484Z,13.10
2018-03-27T05:18:17.832Z,15.47
2018-03-27T05:20:46.149Z,15.97
2018-03-27T05:23:14.611Z,16.43
2018-03-27T05:25:43.018Z,17.53
2018-03-27T05:28:11.376Z,16.20
2018-03-27T05:30:39.807Z,16.27
2018-03-27T05:33:08.178Z,17.67
2018-03-27T05:35:36.589Z,17.30
2018-03-27T05:38:04.940Z,16.13
2018-03-27T05:40:33.364Z,17.37
2018-03-27T05:43:01.787Z,18.93
2018-03-27T05:45:30.173Z,17.73
2018-03-27T05:47:58.512Z,18.90
2018-03-27T05:50:26.892Z,17.03
2018-03-27T05:52:55.242Z,20.40
2018-03-27T05:55:23.801Z,17.63
2018-03-27T05:57:52.116Z,19.60
2018-03-27T06:00:20.450Z,19.43
2018-03-27T06:02:48.805Z,17.43
2018-03-27T06:05:17.147Z,18.67
2018-03-27T06:07:45.644Z,18.43
2018-03-27T06:10:13.973Z,18.53
2018-03-27T06:12:42.317Z,18.97
2018-03-27T06:15:10.658Z,20.67
2018-03-27T06:17:38.998Z,22.00
2018-03-27T06:20:07.377Z,21.47
2018-03-27T06:22:35.734Z,21.30
2018-03-27T06:25:04.091Z,22.17
2018-03-27T06:27:32.444Z,20.10
2018-03-27T06:30:00.766Z,21.13
2018-03-27T06:32:29.117Z,20.10
2018-03-27T06:34:57.487Z,20.43
2018-03-27T06:37:25.849Z,20.87
2018-03-27T06:39:54.173Z,21.60
2018-03-27T06:42:22.514Z,21.87
2018-03-27T06:44:50.865Z,21.60
2018-03-27T06:47:19.227Z,22.63
2018-03-27T06:49:47.651Z,22.77
2018-03-27T06:52:17.102Z,20.77
2018-03-27T06:54:45.457Z,21.53
2018-03-27T06:57:13.808Z,21.93
2018-03-27T06:59:42.135Z,21.50
2018-03-27T07:02:10.493Z,19.67
2018-03-27T07:04:38.878Z,22.13
2018-03-27T07:07:07.217Z,19.17
2018-03-27T07:09:35.666Z,19.53
2018-03-27T07:12:04.031Z,24.40
2018-03-27T07:14:32.446Z,25.13
2018-03-27T07:17:00.815Z,34.47
2018-03-27T07:19:29.187Z,60.07
2018-03-27T07:21:57.580Z,61.53
2018-03-27T07:24:25.952Z,35.97
2018-03-27T07:26:54.333Z,26.93
2018-03-27T07:29:22.671Z,18.23
2018-03-27T07:31:50.995Z,20.57
2018-03-27T07:34:19.333Z,26.93
2018-03-27T07:36:47.722Z,25.73
2018-03-27T07:39:16.092Z,34.20
2018-03-27T07:41:44.419Z,33.43
2018-03-27T07:44:12.789Z,21.00
2018-03-27T07:46:41.127Z,19.70
2018-03-27T07:49:09.484Z,18.63
2018-03-27T07:51:37.822Z,20.33
2018-03-27T07:54:06.317Z,19.60
2018-03-27T07:56:34.691Z,19.93
2018-03-27T07:59:03.034Z,18.10
2018-03-27T08:01:31.380Z,20.00
2018-03-27T08:03:59.746Z,19.53
2018-03-27T08:06:28.116Z,20.27
2018-03-27T08:08:56.513Z,19.80
2018-03-27T08:11:24.912Z,18.03
2018-03-27T08:13:53.267Z,17.47
2018-03-27T08:16:21.619Z,18.27
2018-03-27T08:18:49.981Z,16.63
2018-03-27T08:21:18.381Z,14.93
2018-03-27T08:23:46.804Z,16.37
2018-03-27T08:26:15.114Z,15.07
2018-03-27T08:28:43.447Z,17.63
2018-03-27T08:31:12.150Z,16.67
2018-03-27T08:33:40.541Z,16.20
2018-03-27T08:36:08.890Z,15.77
2018-03-27T08:38:37.245Z,14.63
2018-03-27T08:41:05.572Z,15.63
2018-03-27T08:43:33.996Z,15.87
2018-03-27T08:46:02.323Z,15.73
2018-03-27T08:48:30.660Z,16.40
2018-03-27T08:50:59.079Z,15.83
2018-03-27T08:53:27.393Z,15.47
2018-03-27T08:55:55.736Z,14.43
2018-03-27T08:58:24.161Z,15.03
2018-03-27T09:00:52.486Z,15.03
2018-03-27T09:03:20.953Z,14.67
2018-03-27T09:05:49.338Z,14.47
2018-03-27T09:08:17.674Z,11.03
2018-03-27T09:10:46.056Z,13.17
2018-03-27T09:13:14.402Z,13.53
2018-03-27T09:15:42.759Z,11.80
2018-03-27T09:18:11.115Z,13.03
2018-03-27T09:20:39.456Z,12.63
2018-03-27T09:23:07.888Z,12.77
2018-03-27T09:25:36.228Z,12.87
2018-03-27T09:28:04.564Z,12.77
2018-03-27T09:30:32.933Z,13.67
2018-03-27T09:33:01.267Z,10.73
2018-03-27T09:35:29.977Z,13.50
2018-03-27T09:37:58.376Z,11.70
2018-03-27T09:40:26.751Z,12.20
2018-03-27T09:42:56.131Z,11.90
2018-03-27T09:45:24.471Z,11.80
2018-03-27T09:47:52.841Z,11.70
2018-03-27T09:50:21.341Z,12.57
2018-03-27T09:52:49.667Z,13.30
2018-03-27T09:55:18.795Z,13.80
2018-03-27T09:57:47.162Z,13.20
2018-03-27T10:00:15.520Z,12.30
2018-03-27T10:02:44.055Z,13.83
2018-03-27T10:05:12.405Z,13.77
2018-03-27T10:07:40.746Z,13.47
2018-03-27T10:10:09.093Z,11.47
2018-03-27T10:12:37.420Z,11.27
2018-03-27T10:15:05.776Z,11.93
2018-03-27T10:17:34.145Z,11.83
2018-03-27T10:20:02.501Z,12.77
2018-03-27T10:22:30.928Z,13.20
2018-03-27T10:24:59.268Z,13.80
2018-03-27T10:27:27.613Z,13.80
2018-03-27T10:29:55.948Z,13.77
2018-03-27T10:32:24.418Z,12.60
2018-03-27T10:34:52.775Z,12.87
2018-03-27T10:37:21.115Z,12.37
2018-03-27T10:39:49.502Z,11.77
2018-03-27T10:42:17.869Z,12.67
2018-03-27T10:44:46.224Z,11.53
2018-03-27T10:47:14.626Z,11.70
2018-03-27T10:49:43.009Z,11.50
2018-03-27T10:52:11.341Z,12.87
2018-03-27T10:54:39.734Z,13.27
2018-03-27T10:57:08.084Z,13.93
2018-03-27T10:59:36.419Z,12.53
2018-03-27T11:02:04.761Z,12.40
2018-03-27T11:04:33.114Z,11.57
2018-03-27T11:07:01.456Z,11.17
2018-03-27T11:09:29.794Z,12.50
2018-03-27T11:11:58.141Z,12.97
2018-03-27T11:14:26.557Z,13.93
2018-03-27T11:16:55.084Z,13.87
2018-03-27T11:19:23.414Z,12.57
2018-03-27T11:21:51.771Z,13.77
2018-03-27T11:24:20.142Z,13.90
2018-03-27T11:26:48.480Z,13.67
2018-03-27T11:29:17.166Z,12.23
2018-03-27T11:31:45.563Z,12.97
2018-03-27T11:34:13.910Z,13.07
2018-03-27T11:36:42.281Z,13.13
2018-03-27T11:39:11.142Z,12.50
2018-03-27T11:41:39.751Z,12.87
2018-03-27T11:44:08.135Z,12.50
2018-03-27T11:46:36.454Z,13.23
2018-03-27T11:49:04.788Z,12.33
2018-03-27T11:51:33.130Z,12.03
2018-03-27T11:54:01.456Z,12.17
2018-03-27T11:56:29.784Z,12.60
2018-03-27T11:58:58.142Z,12.13
2018-03-27T12:01:26.465Z,12.00
2018-03-27T12:03:55.556Z,12.30
2018-03-27T12:06:23.899Z,12.53
2018-03-27T12:08:52.234Z,11.93
2018-03-27T12:11:20.553Z,11.83
2018-03-27T12:13:48.946Z,12.87
2018-03-27T12:16:17.289Z,12.23
2018-03-27T12:18:45.678Z,11.57
2018-03-27T12:21:14.036Z,11.10
2018-03-27T12:23:42.398Z,11.97
2018-03-27T12:26:10.732Z,11.87
2018-03-27T12:28:39.093Z,11.73
2018-03-27T12:31:07.528Z,11.13
2018-03-27T12:33:35.897Z,10.47
2018-03-27T12:36:04.222Z,10.53
2018-03-27T12:38:32.608Z,11.67
2018-03-27T12:41:00.967Z,11.63
2018-03-27T12:43:29.734Z,11.77
2018-03-27T12:45:58.065Z,10.17
2018-03-27T12:48:26.510Z,11.37
2018-03-27T12:50:54.935Z,11.47
2018-03-27T12:53:23.254Z,10.03
2018-03-27T12:55:51.596Z,10.10
2018-03-27T12:58:19.929Z,10.93
2018-03-27T13:00:48.324Z,10.90
2018-03-27T13:03:16.639Z,8.67
2018-03-27T13:05:45.038Z,9.60
2018-03-27T13:08:13.360Z,9.17
2018-03-27T13:10:41.697Z,8.77
2018-03-27T13:13:10.014Z,7.83
2018-03-27T13:15:38.373Z,8.00
2018-03-27T13:18:06.994Z,7.20
2018-03-27T13:20:35.328Z,7.43
2018-03-27T13:23:03.695Z,7.33
2018-03-27T13:25:32.056Z,7.03
2018-03-27T13:28:00.398Z,7.10
2018-03-27T13:30:28.718Z,7.30
2018-03-27T13:32:57.076Z,5.80
2018-03-27T13:35:25.441Z,5.53
2018-03-27T13:37:53.861Z,6.47
2018-03-27T13:40:22.201Z,6.60
2018-03-27T13:42:50.531Z,6.33
2018-03-27T13:45:18.938Z,6.17
2018-03-27T13:47:47.289Z,7.10
2018-03-27T13:50:15.597Z,6.17
2018-03-27T13:52:43.943Z,5.00
2018-03-27T13:55:12.272Z,5.57
2018-03-27T13:57:40.665Z,5.67
2018-03-27T14:00:09.018Z,5.77
2018-03-27T14:02:37.411Z,5.03
2018-03-27T14:05:05.742Z,5.33
2018-03-27T14:07:34.128Z,6.40
2018-03-27T14:10:02.456Z,5.77
2018-03-27T14:12:30.778Z,5.57
2018-03-27T14:14:59.157Z,5.47
2018-03-27T14:17:27.459Z,5.77
2018-03-27T14:19:56.151Z,5.03
2018-03-27T14:22:24.500Z,5.13
2018-03-27T14:24:52.840Z,4.57
2018-03-27T14:27:21.155Z,4.43
2018-03-27T14:29:49.493Z,5.23
2018-03-27T14:32:17.842Z,4.50
2018-03-27T14:34:46.173Z,6.03
2018-03-27T14:37:14.505Z,4.40
2018-03-27T14:39:42.887Z,4.10
2018-03-27T14:42:11.300Z,5.50
2018-03-27T14:44:39.624Z,5.07
2018-03-27T14:47:07.980Z,4.70
2018-03-27T14:49:36.306Z,4.73
2018-03-27T14:52:04.647Z,5.27
2018-03-27T14:54:33.000Z,5.13
2018-03-27T14:57:01.426Z,4.20
2018-03-27T14:59:29.780Z,4.83
2018-03-27T15:01:58.319Z,5.37
2018-03-27T15:04:26.650Z,5.20
2018-03-27T15:06:55.187Z,4.40
2018-03-27T15:09:23.537Z,5.30
2018-03-27T15:11:51.877Z,5.13
2018-03-27T15:14:20.211Z,5.00
2018-03-27T15:16:48.522Z,4.87
2018-03-27T15:19:16.862Z,5.00
2018-03-27T15:21:45.206Z,3.87
2018-03-27T15:24:13.554Z,4.00
2018-03-27T15:26:41.983Z,5.03
2018-03-27T15:29:10.337Z,5.50
2018-03-27T15:31:38.733Z,5.03
2018-03-27T15:34:07.286Z,5.07
2018-03-27T15:36:35.600Z,4.67
2018-03-27T15:39:03.996Z,8.27
2018-03-27T15:41:32.404Z,6.07
2018-03-27T15:44:00.751Z,4.80
2018-03-27T15:46:29.111Z,5.17
2018-03-27T15:48:57.494Z,4.70
2018-03-27T15:51:25.911Z,4.90
2018-03-27T15:53:54.248Z,5.40
2018-03-27T15:56:22.652Z,4.67
2018-03-27T15:58:50.978Z,5.00
2018-03-27T16:01:19.392Z,5.90
2018-03-27T16:03:47.723Z,5.60
2018-03-27T16:06:16.085Z,5.67
2018-03-27T16:08:44.437Z,5.50
2018-03-27T16:11:12.762Z,6.53
2018-03-27T16:13:41.297Z,5.63
2018-03-27T16:16:09.737Z,6.10
2018-03-27T16:18:38.109Z,4.80
2018-03-27T16:21:06.886Z,5.80
2018-03-27T16:23:35.456Z,5.13
2018-03-27T16:26:03.843Z,4.60
2018-03-27T16:28:32.145Z,5.07
2018-03-27T16:31:00.474Z,5.83
2018-03-27T16:33:28.810Z,4.87
2018-03-27T16:35:57.314Z,5.63
2018-03-27T16:38:25.688Z,5.50
2018-03-27T16:40:54.003Z,4.47
2018-03-27T16:43:22.317Z,5.10
2018-03-27T16:45:50.654Z,4.93
2018-03-27T16:48:19.040Z,4.87
2018-03-27T16:50:47.648Z,4.27
2018-03-27T16:53:15.964Z,4.97
2018-03-27T16:55:44.268Z,4.43
2018-03-27T16:58:12.594Z,4.83
2018-03-27T17:00:40.903Z,4.23
2018-03-27T17:03:09.226Z,4.90
2018-03-27T17:05:37.541Z,4.00
2018-03-27T17:08:05.885Z,4.93
2018-03-27T17:10:34.269Z,4.27
2018-03-27T17:13:02.599Z,4.63
2018-03-27T17:15:30.928Z,5.93
2018-03-27T17:17:59.275Z,5.50
2018-03-27T17:20:27.584Z,5.27
2018-03-27T17:22:56.070Z,5.07
2018-03-27T17:25:24.413Z,5.97
2018-03-27T17:27:52.810Z,5.33
2018-03-27T17:30:21.208Z,5.07
2018-03-27T17:32:49.708Z,5.97
2018-03-27T17:35:18.017Z,5.93
2018-03-27T17:37:46.347Z,6.20
2018-03-27T17:40:14.688Z,5.80
2018-03-27T17:42:43.021Z,6.17
2018-03-27T17:45:11.521Z,5.60
2018-03-27T17:47:39.836Z,6.83
2018-03-27T17:50:08.247Z,7.40
2018-03-27T17:52:36.588Z,7.00
2018-03-27T17:55:04.914Z,6.33
2018-03-27T17:57:33.236Z,6.67
2018-03-27T18:00:01.832Z,6.43
2018-03-27T18:02:30.188Z,5.90
2018-03-27T18:04:58.585Z,6.50
2018-03-27T18:07:26.964Z,6.17
2018-03-27T18:09:55.309Z,6.77
2018-03-27T18:12:23.757Z,6.73
2018-03-27T18:14:52.217Z,6.77
2018-03-27T18:17:20.590Z,6.83
2018-03-27T18:19:49.046Z,6.77
2018-03-27T18:22:17.369Z,5.90
2018-03-27T18:24:45.755Z,6.83
2018-03-27T18:27:14.115Z,6.50
2018-03-27T18:29:42.484Z,7.23
2018-03-27T18:32:10.798Z,6.87
2018-03-27T18:34:39.137Z,6.83
2018-03-27T18:37:07.557Z,6.63
2018-03-27T18:39:36.191Z,8.63
2018-03-27T18:42:04.506Z,7.63
2018-03-27T18:44:32.842Z,8.07
2018-03-27T18:47:01.171Z,8.57
2018-03-27T18:49:29.507Z,7.77
2018-03-27T18:51:57.883Z,9.87
2018-03-27T18:54:26.193Z,10.20
2018-03-27T18:56:54.522Z,8.77
2018-03-27T18:59:22.883Z,8.73
2018-03-27T19:01:51.218Z,8.50
2018-03-27T19:04:19.530Z,9.47
2018-03-27T19:06:47.876Z,10.10
2018-03-27T19:09:16.206Z,10.10
2018-03-27T19:11:44.546Z,9.37
2018-03-27T19:14:12.856Z,9.70
2018-03-27T19:16:41.185Z,10.50
2018-03-27T19:19:09.498Z,11.27
2018-03-27T19:21:37.917Z,10.53
2018-03-27T19:24:06.308Z,10.60
2018-03-27T19:26:34.703Z,8.20
2018-03-27T19:29:03.046Z,11.33
2018-03-27T19:31:31.394Z,10.67
2018-03-27T19:33:59.727Z,11.60
2018-03-27T19:36:28.069Z,11.63
2018-03-27T19:38:56.390Z,11.80
2018-03-27T19:41:24.746Z,10.97
2018-03-27T19:43:53.087Z,10.90
2018-03-27T19:46:21.458Z,11.77
2018-03-27T19:48:49.841Z,11.40
2018-03-27T19:51:18.221Z,12.53
2018-03-27T19:53:46.626Z,11.20
2018-03-27T19:56:15.064Z,10.83
2018-03-27T19:58:43.401Z,11.00
2018-03-27T20:01:11.736Z,10.63
2018-03-27T20:03:40.071Z,11.53
2018-03-27T20:06:08.413Z,10.77
2018-03-27T20:08:36.763Z,11.10
2018-03-27T20:11:05.153Z,11.50
2018-03-27T20:13:33.497Z,11.87
2018-03-27T20:16:02.035Z,12.33
2018-03-27T20:18:30.334Z,12.30
2018-03-27T20:20:58.667Z,13.13
2018-03-27T20:23:27.015Z,11.80
2018-03-27T20:25:55.449Z,13.07
2018-03-27T20:28:23.812Z,11.67
2018-03-27T20:30:52.136Z,12.27
2018-03-27T20:33:20.490Z,11.93
2018-03-27T20:35:48.854Z,12.77
2018-03-27T20:38:17.224Z,12.70
2018-03-27T20:40:45.680Z,13.23
2018-03-27T20:43:14.069Z,13.87
2018-03-27T20:45:42.430Z,12.50
2018-03-27T20:48:10.782Z,14.77
2018-03-27T20:50:39.104Z,14.63
2018-03-27T20:53:07.451Z,14.80
2018-03-27T20:55:35.814Z,12.77
2018-03-27T20:58:04.349Z,14.97
2018-03-27T21:00:32.699Z,13.27
2018-03-27T21:03:01.110Z,13.50
2018-03-27T21:05:29.498Z,13.33
2018-03-27T21:07:57.891Z,12.80
2018-03-27T21:10:26.213Z,12.80
2018-03-27T21:12:54.593Z,12.37
2018-03-27T21:15:23.111Z,12.17
2018-03-27T21:17:51.432Z,13.13
2018-03-27T21:20:20.424Z,12.73
2018-03-27T21:22:48.761Z,12.40
2018-03-27T21:25:17.088Z,13.57
2018-03-27T21:27:45.681Z,13.00
2018-03-27T21:30:14.816Z,13.57
2018-03-27T21:32:43.175Z,14.80
2018-03-27T21:35:11.496Z,13.27
2018-03-27T21:37:39.820Z,13.43
2018-03-27T21:40:08.213Z,13.03
2018-03-27T21:42:36.533Z,13.40
2018-03-27T21:45:04.870Z,13.50
2018-03-27T21:47:33.262Z,12.30
2018-03-27T21:50:01.600Z,12.90
2018-03-27T21:52:29.952Z,12.63
2018-03-27T21:54:58.334Z,12.23
2018-03-27T21:57:26.695Z,12.87
2018-03-27T21:59:55.009Z,12.40
2018-03-27T22:02:23.444Z,13.57
2018-03-27T22:04:51.769Z,13.57
2018-03-27T22:07:20.122Z,13.40
2018-03-27T22:09:48.659Z,12.63
2018-03-27T22:12:17.150Z,14.03
2018-03-27T22:14:45.598Z,13.13
2018-03-27T22:17:13.994Z,14.00
2018-03-27T22:19:42.321Z,14.07
2018-03-27T22:22:10.709Z,12.70
2018-03-27T22:24:39.052Z,14.40
2018-03-27T22:27:07.447Z,13.90
2018-03-27T22:29:35.777Z,13.93
2018-03-27T22:32:04.121Z,12.17
2018-03-27T22:34:32.518Z,12.60
2018-03-27T22:37:00.925Z,12.97
2018-03-27T22:39:29.268Z,13.37
2018-03-27T22:41:57.640Z,13.17
2018-03-27T22:44:25.988Z,13.93
2018-03-27T22:46:54.419Z,12.10
2018-03-27T22:49:22.859Z,13.10
2018-03-27T22:51:51.159Z,12.93
2018-03-27T22:54:19.562Z,13.17
2018-03-27T22:56:48.000Z,13.23
2018-03-27T22:59:16.328Z,12.63
2018-03-27T23:01:44.681Z,14.10
2018-03-27T23:04:13.016Z,12.00
2018-03-27T23:06:41.356Z,12.67
2018-03-27T23:09:09.719Z,11.10
2018-03-27T23:11:38.049Z,13.00
2018-03-27T23:14:06.368Z,13.00
2018-03-27T23:16:35.072Z,12.20
2018-03-27T23:19:03.470Z,12.57
2018-03-27T23:21:31.853Z,12.53
2018-03-27T23:24:00.178Z,12.40
2018-03-27T23:26:28.754Z,12.33
2018-03-27T23:28:57.114Z,12.73
2018-03-27T23:31:25.445Z,11.80
2018-03-27T23:33:53.773Z,12.30
2018-03-27T23:36:22.104Z,14.30
2018-03-27T23:38:50.441Z,11.87
2018-03-27T23:41:18.788Z,12.83
2018-03-27T23:43:47.138Z,13.27
2018-03-27T23:46:15.484Z,13.00
2018-03-27T23:48:43.797Z,12.97
2018-03-27T23:51:12.147Z,13.30
2018-03-27T23:53:40.548Z,14.33
2018-03-27T23:56:08.888Z,12.93
2018-03-27T23:58:37.242Z,12.27
